Time;durP1;ratioP1;P1;durP2;ratioP2;P2;SDS_P1;SDS_P2;PMS_P1;PMS_P2;Temp;Humidity;BMP_temperature;BMP_pressure;BME280_temperature;BME280_humidity;BME280_pressure;Samples;Min_cycle;Max_cycle;Signal;HPM_P1;HPM_P2
2024/01/23 05:32:37;;;;;;;;;2.75;2.00;;;;;17.59;45.19;102519.47;5055510;27;46139;-74
2024/01/23 05:35:04;;;;;;;;;2.00;2.00;;;;;17.84;44.73;102520.09;5056883;28;45444;-74
2024/01/23 05:37:30;;;;;;;;;7.00;1.00;;;;;17.93;44.24;102525.09;5057015;28;45314;-74
2024/01/23 05:39:55;;;;;;;;;2.00;2.00;;;;;17.93;44.38;102535.94;5054728;28;45568;-73
2024/01/23 05:42:21;;;;;;;;;3.75;1.25;;;;;18.03;43.98;102536.38;5047554;28;46603;-74
2024/01/23 05:44:47;;;;;;;;;2.00;2.00;;;;;17.99;44.03;102542.91;5056662;28;52882;-74
2024/01/23 05:47:12;;;;;;;;;9.00;2.75;;;;;17.97;44.09;102552.94;5056766;28;48053;-74
2024/01/23 05:49:37;;;;;;;;;2.50;1.00;;;;;17.93;44.22;102554.94;5056775;28;45425;-74
2024/01/23 05:52:03;;;;;;;;;2.25;2.00;;;;;18.05;44.05;102551.63;5056607;28;51171;-74
2024/01/23 05:54:28;;;;;;;;;4.25;2.75;;;;;18.13;43.98;102553.97;5056842;28;45231;-76
2024/01/23 05:56:53;;;;;;;;;1.75;1.75;;;;;17.86;44.60;102558.03;5056834;28;45756;-73
2024/01/23 05:59:19;;;;;;;;;7.75;1.25;;;;;17.99;44.35;102567.34;5055673;28;62245;-74
2024/01/23 06:01:44;;;;;;;;;3.75;2.50;;;;;17.95;44.47;102571.16;5055933;28;45394;-74
2024/01/23 06:04:10;;;;;;;;;1.75;1.75;;;;;17.96;44.44;102564.75;5043127;28;45344;-73
2024/01/23 06:06:42;;;;;;;;;2.25;2.00;;;;;17.98;44.30;102581.84;5056895;28;45387;-74
2024/01/23 06:09:11;;;;;;;;;5.75;2.50;;;;;17.95;44.50;102582.00;5056349;28;45534;-73
2024/01/23 06:11:38;;;;;;;;;2.25;2.25;;;;;17.79;44.82;102587.25;5056220;28;45449;-74
2024/01/23 06:14:04;;;;;;;;;7.00;4.00;;;;;17.76;44.74;102584.72;5052944;28;45520;-74
2024/01/23 06:16:29;;;;;;;;;2.00;1.00;;;;;17.51;45.27;102565.06;5056696;28;45727;-75
2024/01/23 06:18:55;;;;;;;;;1.75;1.75;;;;;17.66;45.03;102577.94;5056414;28;45561;-74
2024/01/23 06:21:20;;;;;;;;;3.00;3.00;;;;;17.69;44.82;102569.69;5039210;28;46266;-76
2024/01/23 06:23:46;;;;;;;;;5.00;2.00;;;;;17.87;44.77;102579.63;5058633;28;45500;-73
2024/01/23 06:26:11;;;;;;;;;5.75;4.00;;;;;17.78;44.75;102580.94;5038247;28;45438;-74
2024/01/23 06:28:36;;;;;;;;;2.00;2.00;;;;;17.75;44.84;102580.22;5056011;28;45328;-74
2024/01/23 06:31:02;;;;;;;;;2.00;2.00;;;;;17.67;45.29;102580.59;5056200;28;45311;-73
2024/01/23 06:33:27;;;;;;;;;2.25;0.25;;;;;17.62;45.40;102585.31;5056532;28;45484;-72
2024/01/23 06:35:53;;;;;;;;;5.75;1.25;;;;;17.72;44.86;102575.81;5053034;28;45331;-80
2024/01/23 06:38:20;;;;;;;;;1.75;1.75;;;;;17.83;45.23;102586.19;5038392;28;45707;-80
2024/01/23 06:40:45;;;;;;;;;6.00;2.50;;;;;17.81;45.04;102587.19;5028630;28;45624;-76
2024/01/23 06:43:11;;;;;;;;;6.00;2.75;;;;;17.73;45.24;102580.28;5040120;28;45499;-76
2024/01/23 06:45:36;;;;;;;;;3.50;2.00;;;;;17.58;45.17;102559.28;5056948;28;45728;-76
2024/01/23 06:48:02;;;;;;;;;3.75;1.50;;;;;17.50;45.47;102557.88;5055834;28;45467;-83
2024/01/23 06:50:32;;;;;;;;;11.50;4.00;;;;;17.62;45.57;102566.34;5039517;28;45966;-79
2024/01/23 06:52:57;;;;;;;;;1.50;1.50;;;;;17.64;45.37;102585.25;5055904;28;45507;-75
2024/01/23 06:55:23;;;;;;;;;9.25;2.75;;;;;17.69;45.59;102583.25;5055510;28;50695;-75
2024/01/23 06:57:48;;;;;;;;;2.75;2.75;;;;;17.67;45.76;102582.41;5037315;28;46003;-78
2024/01/23 07:00:14;;;;;;;;;3.00;3.00;;;;;17.71;45.54;102578.59;5055549;28;55541;-73
2024/01/23 07:02:39;;;;;;;;;8.00;4.00;;;;;17.80;45.08;102593.56;5050452;28;45477;-75
2024/01/23 07:05:05;;;;;;;;;9.25;3.00;;;;;17.85;45.42;102599.69;5046348;28;45342;-74
2024/01/23 07:07:30;;;;;;;;;5.00;2.75;;;;;17.86;45.20;102596.91;5054583;28;45610;-75
2024/01/23 07:09:57;;;;;;;;;9.50;5.00;;;;;17.63;45.80;102605.19;5036186;28;46128;-75
2024/01/23 07:12:22;;;;;;;;;3.50;2.00;;;;;17.80;45.43;102612.56;5046669;28;53671;-76
2024/01/23 07:14:48;;;;;;;;;2.00;2.00;;;;;17.81;45.73;102614.31;5018408;28;45357;-77
2024/01/23 07:17:14;;;;;;;;;3.25;2.00;;;;;17.72;45.86;102621.94;5052692;28;45347;-75
2024/01/23 07:19:40;;;;;;;;;4.75;3.50;;;;;17.59;45.74;102618.00;5055149;28;46393;-75
2024/01/23 07:22:05;;;;;;;;;3.50;3.50;;;;;17.49;46.39;102619.38;5054497;28;45310;-71
2024/01/23 07:24:31;;;;;;;;;4.00;3.75;;;;;17.21;46.71;102626.94;5055065;28;54795;-73
2024/01/23 07:26:56;;;;;;;;;4.00;3.25;;;;;17.56;46.18;102625.38;5054040;28;45984;-72
2024/01/23 07:29:22;;;;;;;;;3.00;3.00;;;;;17.60;45.79;102622.47;5054187;28;46911;-70
2024/01/23 07:31:48;;;;;;;;;6.50;2.25;;;;;17.76;45.70;102625.41;5054598;28;45434;-73
2024/01/23 07:34:13;;;;;;;;;7.50;3.00;;;;;17.80;45.88;102624.28;5055444;28;45436;-72
2024/01/23 07:36:38;;;;;;;;;4.00;3.50;;;;;17.59;46.18;102609.88;5054673;28;45522;-72
2024/01/23 07:39:05;;;;;;;;;8.00;4.25;;;;;17.78;45.90;102621.66;5054474;28;53354;-72
2024/01/23 07:41:30;;;;;;;;;5.25;3.00;;;;;17.64;46.29;102631.38;5042444;28;45438;-73
2024/01/23 07:43:55;;;;;;;;;3.50;3.00;;;;;17.57;46.68;102609.03;5055391;28;45644;-73
2024/01/23 07:46:22;;;;;;;;;4.50;4.50;;;;;17.60;46.30;102617.06;5051549;28;54148;-73
2024/01/23 07:48:48;;;;;;;;;3.75;2.50;;;;;17.73;46.38;102621.00;5044444;28;45391;-72
2024/01/23 07:51:14;;;;;;;;;5.00;3.50;;;;;17.59;46.82;102622.53;5054968;28;45329;-71
2024/01/23 07:53:39;;;;;;;;;4.00;2.50;;;;;17.32;46.80;102565.00;5055030;28;45310;-72
2024/01/23 07:56:05;;;;;;;;;4.00;4.00;;;;;17.52;46.80;102619.25;5054638;28;45438;-71
2024/01/23 07:58:30;;;;;;;;;3.50;3.50;;;;;17.45;47.06;102625.84;5054892;28;46307;-72
2024/01/23 08:00:56;;;;;;;;;9.75;4.00;;;;;17.36;47.56;102639.81;5055029;28;45251;-72
2024/01/23 08:03:21;;;;;;;;;3.00;3.00;;;;;17.47;47.29;102651.09;5026833;28;45447;-74
2024/01/23 08:05:47;;;;;;;;;6.50;3.25;;;;;17.55;46.99;102648.91;5051496;28;45479;-71
2024/01/23 08:08:12;;;;;;;;;4.25;3.25;;;;;17.32;47.38;102658.06;5054274;28;57596;-72
2024/01/23 08:10:37;;;;;;;;;6.00;3.25;;;;;17.44;47.66;102667.47;5054441;28;45310;-72
2024/01/23 08:13:03;;;;;;;;;2.75;2.75;;;;;17.37;47.68;102655.16;5054789;28;45327;-73
2024/01/23 08:15:29;;;;;;;;;4.75;2.75;;;;;17.30;47.86;102656.38;5032780;28;45340;-75
2024/01/23 08:17:55;;;;;;;;;2.25;2.00;;;;;17.53;47.39;102668.91;5054560;28;45624;-73
2024/01/23 08:20:21;;;;;;;;;3.75;2.75;;;;;17.72;47.09;102668.06;5054516;28;45400;-73
2024/01/23 08:22:46;;;;;;;;;8.25;5.00;;;;;17.39;47.32;102664.09;5036714;28;45327;-72
2024/01/23 08:25:12;;;;;;;;;7.50;4.00;;;;;17.56;47.37;102661.53;5054294;28;45523;-74
2024/01/23 08:27:37;;;;;;;;;10.00;4.25;;;;;17.60;46.97;102651.44;5054328;28;45524;-72
2024/01/23 08:30:03;;;;;;;;;4.00;3.00;;;;;17.63;47.23;102654.03;5054443;28;45390;-71
2024/01/23 08:32:28;;;;;;;;;3.75;3.00;;;;;17.92;46.59;102666.28;5054272;28;46598;-73
2024/01/23 08:34:55;;;;;;;;;2.25;2.25;;;;;17.94;46.13;102661.66;5054125;28;46720;-71
2024/01/23 08:37:22;;;;;;;;;3.50;3.50;;;;;18.03;46.51;102664.81;5054898;28;45394;-73
2024/01/23 08:39:47;;;;;;;;;6.25;3.75;;;;;17.82;46.53;102646.81;5035625;28;45344;-72
2024/01/23 08:42:12;;;;;;;;;4.25;4.00;;;;;17.89;47.03;102672.72;5043952;28;46972;-72
2024/01/23 08:44:40;;;;;;;;;5.00;3.50;;;;;17.91;46.83;102662.69;5054290;28;45366;-73
2024/01/23 08:47:06;;;;;;;;;8.25;4.75;;;;;17.96;46.68;102667.88;5054479;28;45385;-71
2024/01/23 08:49:32;;;;;;;;;10.00;5.00;;;;;17.88;46.79;102668.22;5054163;28;45348;-73
2024/01/23 08:51:57;;;;;;;;;8.25;3.75;;;;;18.14;46.53;102675.16;5054506;28;45402;-71
2024/01/23 08:54:23;;;;;;;;;4.00;2.50;;;;;18.26;46.34;102673.72;5053789;28;57891;-72
2024/01/23 08:56:49;;;;;;;;;2.00;2.00;;;;;18.20;46.20;102663.16;5053866;28;47947;-72
2024/01/23 08:59:14;;;;;;;;;6.00;4.50;;;;;18.16;46.13;102654.28;5054242;28;45260;-72
2024/01/23 09:01:40;;;;;;;;;5.00;3.00;;;;;18.29;46.05;102669.00;5054298;28;45267;-72
2024/01/23 09:04:06;;;;;;;;;2.00;0.50;;;;;18.21;45.79;102667.59;5040531;28;46909;-72
2024/01/23 09:06:31;;;;;;;;;4.25;3.00;;;;;18.38;45.94;102662.25;5054170;28;46311;-73
2024/01/23 09:08:57;;;;;;;;;6.25;3.00;;;;;18.49;45.53;102662.63;5053584;28;55320;-72
2024/01/23 09:11:22;;;;;;;;;3.25;3.25;;;;;18.50;45.63;102667.09;5053993;28;45390;-73
2024/01/23 09:13:47;;;;;;;;;6.00;4.75;;;;;18.52;45.64;102674.25;5049894;28;45485;-72
2024/01/23 09:16:13;;;;;;;;;8.00;4.00;;;;;18.66;45.39;102679.03;5053540;28;56495;-72
2024/01/23 09:18:40;;;;;;;;;6.00;3.25;;;;;18.71;45.30;102679.69;5053528;28;45369;-72
2024/01/23 09:21:08;;;;;;;;;6.25;3.00;;;;;18.60;45.59;102667.59;5054066;28;45303;-71
2024/01/23 09:23:33;;;;;;;;;5.50;3.25;;;;;18.66;45.37;102672.72;5053768;28;45647;-71
2024/01/23 09:25:59;;;;;;;;;4.00;4.00;;;;;18.64;45.33;102669.19;5053688;28;45463;-72
2024/01/23 09:28:24;;;;;;;;;5.00;5.00;;;;;18.67;45.02;102667.19;5053342;28;51632;-72
2024/01/23 09:30:49;;;;;;;;;8.50;4.50;;;;;18.71;45.25;102644.38;5053766;28;45508;-72
2024/01/23 09:33:15;;;;;;;;;3.50;3.50;;;;;18.77;45.37;102665.78;5053386;28;45345;-71
2024/01/23 09:35:40;;;;;;;;;6.00;4.75;;;;;18.73;45.17;102666.00;5053630;28;46387;-73
2024/01/23 09:38:05;;;;;;;;;7.00;3.50;;;;;18.66;45.67;102668.16;5055727;28;45344;-72
2024/01/23 09:40:31;;;;;;;;;3.50;3.50;;;;;18.44;46.04;102667.41;5050107;28;45300;-72
2024/01/23 09:42:57;;;;;;;;;6.00;4.00;;;;;18.53;46.40;102669.69;5051477;28;61485;-72
2024/01/23 09:45:28;;;;;;;;;6.75;5.50;;;;;18.47;46.18;102667.25;5056773;28;46925;-72
2024/01/23 09:47:55;;;;;;;;;5.00;3.50;;;;;18.49;45.40;102649.03;5056739;28;46526;-72
2024/01/23 09:50:25;;;;;;;;;2.25;2.25;;;;;18.46;46.10;102658.22;5056978;28;45461;-71
2024/01/23 09:52:50;;;;;;;;;3.00;3.00;;;;;18.31;46.73;102655.38;5056533;28;45426;-72
2024/01/23 09:55:16;;;;;;;;;6.50;2.50;;;;;18.48;46.21;102658.16;5056476;28;45794;-74
2024/01/23 09:57:47;;;;;;;;;6.75;3.00;;;;;18.60;46.08;102656.72;5056460;28;45183;-73
2024/01/23 10:00:13;;;;;;;;;8.50;4.75;;;;;18.51;46.06;102625.41;5056987;28;45399;-72
2024/01/23 10:02:39;;;;;;;;;3.50;3.25;;;;;18.45;45.76;102621.19;5052005;28;45391;-70
2024/01/23 10:05:09;;;;;;;;;10.00;8.50;;;;;18.60;46.24;102637.69;5047805;28;45476;-72
2024/01/23 10:07:36;;;;;;;;;10.75;5.00;;;;;18.50;46.25;102643.53;5056493;28;45529;-72
2024/01/23 10:10:05;;;;;;;;;10.00;8.50;;;;;18.68;46.14;102628.22;5057053;28;45511;-72
2024/01/23 10:12:32;;;;;;;;;10.25;4.00;;;;;18.73;45.85;102641.56;5056177;28;45521;-73
2024/01/23 10:15:00;;;;;;;;;7.00;3.50;;;;;18.49;46.43;102639.06;5052997;28;45353;-72
2024/01/23 10:17:25;;;;;;;;;8.50;7.00;;;;;18.22;47.01;102643.09;5056126;28;45268;-72
2024/01/23 10:19:53;;;;;;;;;4.00;3.00;;;;;18.36;46.77;102618.91;5056514;28;45246;-72
2024/01/23 10:22:18;;;;;;;;;4.25;4.25;;;;;18.53;46.73;102637.97;5056100;28;45365;-72
2024/01/23 10:24:43;;;;;;;;;8.75;6.00;;;;;18.54;46.42;102637.00;5056201;28;53161;-72
2024/01/23 10:27:09;;;;;;;;;3.75;3.75;;;;;18.67;46.34;102622.84;5055746;28;45714;-71
2024/01/23 10:29:35;;;;;;;;;15.00;7.75;;;;;18.66;46.60;102629.22;5056212;28;45534;-72
2024/01/23 10:32:02;;;;;;;;;5.75;4.00;;;;;18.46;47.04;102625.63;5055705;28;45325;-73
2024/01/23 10:34:28;;;;;;;;;4.50;4.50;;;;;18.48;47.14;102631.88;5056130;28;45264;-71
2024/01/23 10:36:57;;;;;;;;;4.00;4.00;;;;;18.57;47.09;102638.72;5056051;28;45263;-72
2024/01/23 10:39:23;;;;;;;;;6.75;5.75;;;;;18.55;46.99;102629.72;5056643;28;45393;-72
2024/01/23 10:41:51;;;;;;;;;4.00;4.00;;;;;18.44;47.23;102635.72;5043767;28;45352;-71
2024/01/23 10:44:21;;;;;;;;;5.50;4.50;;;;;18.45;47.77;102656.47;5055965;28;45351;-71
2024/01/23 10:46:48;;;;;;;;;16.00;7.75;;;;;18.48;47.81;102663.56;5037736;28;45421;-72
2024/01/23 10:49:14;;;;;;;;;11.75;4.00;;;;;18.29;49.04;102669.00;5054802;28;45525;-72
2024/01/23 10:51:46;;;;;;;;;9.25;5.75;;;;;18.68;48.27;102657.22;5056297;28;45482;-73
2024/01/23 10:54:42;;;;;;;;;3.00;3.00;;;;;18.68;47.89;102651.78;5038393;28;46513;-73
2024/01/23 10:57:12;;;;;;;;;9.00;4.00;;;;;18.68;48.12;102621.91;5054790;28;45426;-73
2024/01/23 10:59:38;;;;;;;;;11.25;3.75;;;;;18.59;48.45;102593.34;5055931;28;45307;-73
2024/01/23 11:02:30;;;;;;;;;6.75;6.00;;;;;18.75;48.17;102604.31;5055778;28;45410;-71
2024/01/23 11:04:56;;;;;;;;;7.75;5.50;;;;;18.64;48.36;102612.13;5035115;28;46399;-73
2024/01/23 11:07:34;;;;;;;;;4.00;3.50;;;;;18.75;48.19;102602.47;5055368;28;45268;-72
2024/01/23 11:10:22;;;;;;;;;7.50;5.25;;;;;18.72;48.57;102610.78;5037511;28;45426;-72
2024/01/23 11:13:10;;;;;;;;;9.25;9.00;;;;;18.75;48.35;102569.00;5037529;28;45416;-71
2024/01/23 11:15:36;;;;;;;;;8.50;4.50;;;;;18.96;48.28;102569.75;5050582;28;45434;-72
2024/01/23 11:18:29;;;;;;;;;9.25;4.00;;;;;18.84;48.75;102547.66;5055366;28;45366;-73
2024/01/23 11:21:09;;;;;;;;;10.00;3.50;;;;;18.83;48.75;102548.63;5047786;28;45413;-72
2024/01/23 11:23:39;;;;;;;;;7.75;4.25;;;;;18.97;48.44;102547.03;5055419;28;45488;-70
2024/01/23 11:26:15;;;;;;;;;7.75;5.50;;;;;19.08;48.41;102542.78;5055290;28;45431;-73
2024/01/23 11:28:47;;;;;;;;;4.25;4.00;;;;;19.22;48.13;102526.59;5055343;28;45600;-72
2024/01/23 11:31:21;;;;;;;;;9.50;5.00;;;;;19.33;48.04;102519.69;5055388;28;45293;-72
2024/01/23 11:33:47;;;;;;;;;7.50;5.00;;;;;19.37;47.30;102535.78;5037135;28;45567;-73
2024/01/23 11:36:14;;;;;;;;;12.00;4.00;;;;;19.44;47.49;102547.22;5055144;28;45500;-71
2024/01/23 11:38:48;;;;;;;;;6.75;5.00;;;;;19.05;47.99;102529.38;5055613;28;45760;-71
2024/01/23 11:41:22;;;;;;;;;8.25;4.00;;;;;19.09;48.28;102525.50;5043224;28;45338;-71
2024/01/23 11:44:04;;;;;;;;;13.50;8.00;;;;;18.98;48.80;102527.03;5054958;28;45302;-71
2024/01/23 11:46:30;;;;;;;;;6.00;6.00;;;;;18.97;48.46;102523.44;5054789;28;45998;-72
2024/01/23 11:48:56;;;;;;;;;9.00;7.00;;;;;18.98;49.25;102527.03;5055111;28;45369;-73
2024/01/23 11:51:22;;;;;;;;;7.25;7.00;;;;;19.09;48.59;102502.88;5055121;28;45479;-71
2024/01/23 11:53:47;;;;;;;;;15.25;5.75;;;;;19.17;48.67;102516.94;5055259;28;45402;-71
2024/01/23 11:56:14;;;;;;;;;7.50;5.25;;;;;19.14;48.66;102500.81;5054472;28;46324;-71
2024/01/23 11:58:41;;;;;;;;;6.00;5.00;;;;;19.24;48.21;102494.78;5055045;28;45350;-71
2024/01/23 12:01:08;;;;;;;;;9.25;5.00;;;;;19.08;48.66;102496.56;5036405;28;45467;-72
2024/01/23 12:03:34;;;;;;;;;7.00;5.00;;;;;19.03;48.70;102476.03;5042686;28;45310;-72
2024/01/23 12:06:02;;;;;;;;;9.75;6.50;;;;;19.17;48.41;102493.34;5052920;28;45279;-71
2024/01/23 12:08:28;;;;;;;;;10.00;7.00;;;;;19.29;48.24;102480.94;5054935;28;45346;-72
2024/01/23 12:10:55;;;;;;;;;8.50;5.50;;;;;19.17;48.80;102468.00;5054613;28;45557;-70
2024/01/23 12:13:24;;;;;;;;;10.25;5.00;;;;;19.01;49.04;102459.81;5052230;28;45427;-73
2024/01/23 12:15:51;;;;;;;;;7.25;6.00;;;;;19.06;49.11;102476.72;5019270;28;46190;-72
2024/01/23 12:18:21;;;;;;;;;5.75;3.25;;;;;19.00;48.75;102457.16;5054712;28;45452;-72
2024/01/23 12:20:48;;;;;;;;;8.00;5.50;;;;;19.08;48.70;102473.94;5054719;28;45293;-72
2024/01/23 12:23:15;;;;;;;;;3.25;3.00;;;;;19.06;48.64;102456.81;5054768;28;45438;-72
2024/01/23 12:25:41;;;;;;;;;7.50;6.00;;;;;18.95;49.33;102472.84;5054444;28;46096;-72
2024/01/23 12:28:06;;;;;;;;;13.25;8.00;;;;;18.82;49.65;102461.75;5054758;28;45327;-72
2024/01/23 12:30:32;;;;;;;;;8.25;4.00;;;;;19.03;49.33;102470.59;5054201;28;45307;-71
2024/01/23 12:32:59;;;;;;;;;11.75;6.75;;;;;19.03;49.50;102448.84;5054528;28;45398;-72
2024/01/23 12:35:24;;;;;;;;;9.75;6.75;;;;;19.11;49.00;102468.34;5054456;28;45358;-72
2024/01/23 12:37:51;;;;;;;;;12.00;7.25;;;;;19.13;49.09;102467.31;5054161;28;45318;-73
2024/01/23 12:40:16;;;;;;;;;13.75;5.25;;;;;18.90;49.45;102462.22;5049628;28;45405;-73
2024/01/23 12:42:49;;;;;;;;;6.50;5.00;;;;;19.15;49.25;102446.31;5047681;28;45271;-72
2024/01/23 12:45:17;;;;;;;;;6.25;5.75;;;;;19.33;48.87;102439.00;5054605;28;45513;-72
2024/01/23 12:47:46;;;;;;;;;8.75;5.75;;;;;19.22;49.08;102450.47;5053991;28;45354;-71
2024/01/23 12:50:20;;;;;;;;;10.00;6.00;;;;;19.10;49.63;102443.00;5054331;28;45498;-71
2024/01/23 12:52:58;;;;;;;;;6.25;5.00;;;;;19.28;49.26;102424.78;5053845;28;45471;-73
2024/01/23 12:55:27;;;;;;;;;9.00;5.25;;;;;19.25;49.39;102424.94;5035807;28;48481;-73
2024/01/23 12:57:52;;;;;;;;;10.25;6.75;;;;;19.15;49.14;102420.97;5054063;28;45377;-72
2024/01/23 13:00:19;;;;;;;;;13.25;5.25;;;;;19.21;48.47;102423.38;5054345;28;45319;-72
2024/01/23 13:02:45;;;;;;;;;6.50;5.00;;;;;19.02;49.27;102409.03;5048294;28;45909;-74
2024/01/23 13:05:17;;;;;;;;;8.25;3.25;;;;;19.26;48.89;102397.69;5045659;28;45210;-73
2024/01/23 13:07:44;;;;;;;;;4.00;4.00;;;;;19.44;48.28;102386.72;5053785;28;45406;-72
2024/01/23 13:10:10;;;;;;;;;2.25;1.75;;;;;19.40;48.28;102363.38;5053910;28;45264;-73
2024/01/23 13:12:37;;;;;;;;;4.00;4.00;;;;;19.43;48.13;102369.53;5055072;28;45491;-72
2024/01/23 13:15:03;;;;;;;;;0.25;0.25;;;;;19.44;48.06;102363.13;5053298;28;46125;-71
2024/01/23 13:17:29;;;;;;;;;7.50;3.00;;;;;19.63;47.60;102358.41;5057241;28;45351;-73
2024/01/23 13:19:56;;;;;;;;;2.25;2.25;;;;;19.65;47.33;102339.25;5057602;28;45628;-72
2024/01/23 13:22:21;;;;;;;;;4.50;4.50;;;;;19.48;47.41;102340.22;5057066;28;46269;-72
2024/01/23 13:24:47;;;;;;;;;7.75;4.75;;;;;19.50;47.32;102338.31;5057489;28;46271;-72
2024/01/23 13:27:12;;;;;;;;;3.50;3.25;;;;;19.34;47.39;102314.78;5056616;28;54149;-73
2024/01/23 13:29:38;;;;;;;;;6.75;6.75;;;;;19.39;47.74;102321.72;5057547;28;45273;-72
2024/01/23 13:32:06;;;;;;;;;6.25;2.00;;;;;19.24;47.81;102320.75;5056838;28;45317;-72
2024/01/23 13:34:32;;;;;;;;;8.00;5.00;;;;;19.30;47.78;102319.53;5057281;28;46190;-73
2024/01/23 13:36:58;;;;;;;;;4.00;0.00;;;;;19.41;47.44;102327.94;5057062;28;45425;-72
2024/01/23 13:39:23;;;;;;;;;5.00;3.25;;;;;19.38;47.46;102319.97;5057267;28;45413;-73
2024/01/23 13:41:49;;;;;;;;;8.75;6.00;;;;;19.56;47.04;102307.16;5044977;28;45520;-71
2024/01/23 13:44:14;;;;;;;;;5.50;3.00;;;;;19.57;46.91;102289.84;5057445;28;46542;-72
2024/01/23 13:46:40;;;;;;;;;7.50;4.00;;;;;19.62;46.57;102306.81;5056877;28;45437;-72
2024/01/23 13:49:06;;;;;;;;;3.25;3.00;;;;;19.63;46.55;102304.00;5057272;28;45483;-71
2024/01/23 13:51:32;;;;;;;;;5.75;3.75;;;;;19.60;46.18;102287.84;5056723;28;45454;-74
2024/01/23 13:53:58;;;;;;;;;4.50;4.50;;;;;19.54;46.36;102295.50;5056846;28;46639;-71
2024/01/23 13:56:23;;;;;;;;;6.00;2.00;;;;;19.35;46.84;102294.78;5038375;28;45368;-71
2024/01/23 13:58:49;;;;;;;;;5.25;3.00;;;;;19.41;46.94;102265.38;5056878;28;45361;-72
2024/01/23 14:01:14;;;;;;;;;6.00;3.00;;;;;19.59;46.14;102285.19;5056646;28;45446;-73
2024/01/23 14:03:40;;;;;;;;;5.25;3.25;;;;;19.61;46.53;102264.22;5043532;28;45289;-72
2024/01/23 14:06:06;;;;;;;;;3.25;3.00;;;;;19.79;45.77;102260.41;5055740;28;45196;-71
2024/01/23 14:08:35;;;;;;;;;4.50;3.00;;;;;19.52;45.78;102238.44;5056622;28;45328;-72
2024/01/23 14:11:01;;;;;;;;;4.25;3.00;;;;;19.69;46.05;102240.16;5056410;28;45541;-72
2024/01/23 14:13:26;;;;;;;;;3.00;3.00;;;;;19.73;46.14;102241.75;5052695;28;60633;-72
2024/01/23 14:15:52;;;;;;;;;3.00;3.00;;;;;19.81;45.67;102235.84;5055803;28;45379;-72
2024/01/23 14:18:18;;;;;;;;;3.75;2.75;;;;;19.81;45.52;102220.38;5038302;28;45351;-72
2024/01/23 14:20:44;;;;;;;;;8.00;4.00;;;;;19.76;45.56;102227.94;5056359;28;45300;-72
2024/01/23 14:23:09;;;;;;;;;9.00;3.00;;;;;19.88;45.50;102218.16;5056002;28;46267;-72
2024/01/23 14:25:34;;;;;;;;;2.50;2.50;;;;;19.87;45.61;102211.84;5056133;28;45333;-72
2024/01/23 14:28:00;;;;;;;;;9.25;4.25;;;;;19.68;45.61;102204.88;5056474;28;45293;-74
2024/01/23 14:30:25;;;;;;;;;9.00;2.00;;;;;19.68;45.53;102189.44;5038163;28;45487;-73
2024/01/23 14:32:51;;;;;;;;;7.00;3.25;;;;;19.92;44.91;102204.25;5038312;28;46074;-73
2024/01/23 14:35:17;;;;;;;;;4.00;4.00;;;;;20.04;44.85;102202.63;5056153;28;45342;-72
2024/01/23 14:37:42;;;;;;;;;2.75;2.75;;;;;20.20;44.81;102211.56;5056537;28;45618;-72
2024/01/23 14:40:09;;;;;;;;;6.25;3.00;;;;;19.96;44.85;102194.06;5052284;28;45567;-72
2024/01/23 14:42:34;;;;;;;;;6.25;4.00;;;;;20.01;44.70;102205.53;5048958;28;46360;-71
2024/01/23 14:44:59;;;;;;;;;7.25;2.75;;;;;19.84;45.23;102216.56;5055985;28;58217;-73
2024/01/23 14:47:25;;;;;;;;;5.00;1.25;;;;;20.14;44.56;102190.19;5056413;28;45354;-72
2024/01/23 14:49:51;;;;;;;;;4.00;3.00;;;;;20.07;44.77;102212.44;5055707;28;45545;-72
2024/01/23 14:52:16;;;;;;;;;7.75;3.75;;;;;19.57;46.01;102200.06;5055879;28;45957;-72
2024/01/23 14:54:42;;;;;;;;;2.75;2.00;;;;;19.58;46.28;102200.00;5055772;28;45313;-72
2024/01/23 14:57:07;;;;;;;;;3.00;3.00;;;;;19.57;46.22;102203.66;5037737;28;45361;-72
2024/01/23 14:59:33;;;;;;;;;8.00;4.50;;;;;19.79;45.99;102213.28;5055661;28;45343;-71
2024/01/23 15:01:58;;;;;;;;;5.00;3.00;;;;;20.05;45.72;102192.59;5055109;28;57563;-73
2024/01/23 15:04:23;;;;;;;;;5.00;2.00;;;;;20.19;45.01;102193.47;5041694;28;45173;-73
2024/01/23 15:06:49;;;;;;;;;3.75;3.75;;;;;20.24;45.24;102195.94;5056122;28;45299;-71
2024/01/23 15:09:15;;;;;;;;;6.25;1.75;;;;;20.10;45.38;102204.94;5055533;28;45407;-72
2024/01/23 15:11:43;;;;;;;;;3.75;2.75;;;;;19.66;46.66;102196.78;5055263;28;45705;-73
2024/01/23 15:14:10;;;;;;;;;6.25;3.50;;;;;19.75;46.32;102198.97;5051709;28;45347;-72
2024/01/23 15:16:37;;;;;;;;;4.25;2.25;;;;;19.88;46.11;102209.97;5055469;28;45429;-72
2024/01/23 15:19:02;;;;;;;;;3.00;3.00;;;;;19.65;46.61;102214.97;5055455;28;45308;-74
2024/01/23 15:21:28;;;;;;;;;10.75;4.00;;;;;19.64;47.29;102225.97;5055572;28;45287;-73
2024/01/23 15:23:53;;;;;;;;;4.50;3.75;;;;;19.61;46.90;102217.97;5055106;28;45340;-73
2024/01/23 15:26:19;;;;;;;;;7.00;4.25;;;;;19.68;47.13;102226.66;5055444;28;45425;-72
2024/01/23 15:28:44;;;;;;;;;2.50;2.00;;;;;19.46;47.79;102238.78;5055292;28;45582;-72
2024/01/23 15:31:09;;;;;;;;;7.50;3.00;;;;;19.55;47.21;102223.81;5055248;28;46038;-72
2024/01/23 15:33:35;;;;;;;;;5.75;4.50;;;;;19.32;47.71;102224.22;5054652;28;52282;-73
2024/01/23 15:36:00;;;;;;;;;5.25;3.50;;;;;19.54;47.66;102205.72;5054805;28;45348;-72
2024/01/23 15:38:25;;;;;;;;;7.50;4.25;;;;;19.80;47.10;102207.75;5054976;28;45358;-73
2024/01/23 15:40:51;;;;;;;;;7.00;4.25;;;;;19.61;47.56;102224.31;5045214;28;45364;-73
2024/01/23 15:43:16;;;;;;;;;4.00;4.00;;;;;19.73;47.49;102217.25;5052782;28;47896;-74
2024/01/23 15:45:41;;;;;;;;;10.75;2.75;;;;;19.30;48.66;102234.34;5054925;28;59532;-71
2024/01/23 15:48:07;;;;;;;;;4.00;3.75;;;;;19.79;47.56;102235.03;5055226;28;45455;-72
2024/01/23 15:50:33;;;;;;;;;8.50;3.50;;;;;19.62;48.09;102241.50;5055100;28;45421;-73
2024/01/23 15:53:00;;;;;;;;;9.00;3.75;;;;;19.49;48.17;102230.47;5054867;28;45469;-73
2024/01/23 15:55:25;;;;;;;;;10.25;3.75;;;;;19.63;48.07;102243.25;5054780;28;45370;-72
2024/01/23 15:57:52;;;;;;;;;3.50;3.00;;;;;19.76;48.00;102235.22;5054835;28;45314;-71
2024/01/23 16:00:18;;;;;;;;;5.00;3.00;;;;;19.38;48.23;102199.41;5054907;28;45266;-73
2024/01/23 16:02:43;;;;;;;;;6.50;3.00;;;;;19.71;48.01;102210.13;5049525;28;45186;-73
2024/01/23 16:05:10;;;;;;;;;4.00;4.00;;;;;19.83;47.75;102212.09;5046483;28;45198;-71
2024/01/23 16:07:35;;;;;;;;;5.00;4.00;;;;;19.94;47.78;102201.44;5054835;28;45357;-72
2024/01/23 16:10:00;;;;;;;;;7.25;4.25;;;;;19.89;47.75;102203.56;5054417;28;45903;-74
2024/01/23 16:12:26;;;;;;;;;8.00;5.50;;;;;19.98;47.62;102203.00;5054487;28;45483;-73
2024/01/23 16:14:51;;;;;;;;;5.25;3.25;;;;;20.01;47.67;102191.91;5050559;28;45504;-74
2024/01/23 16:17:17;;;;;;;;;6.50;3.75;;;;;20.07;47.59;102180.66;5036218;28;46291;-71
2024/01/23 16:19:43;;;;;;;;;10.00;4.00;;;;;20.06;47.34;102162.56;5042761;28;45975;-81
2024/01/23 16:22:08;;;;;;;;;7.25;3.50;;;;;20.16;47.61;102190.94;5051961;28;45314;-73
2024/01/23 16:24:40;;;;;;;;;2.50;2.50;;;;;20.20;47.46;102199.81;5054699;28;45455;-72
2024/01/23 16:27:08;;;;;;;;;7.50;4.25;;;;;20.01;47.35;102170.13;5054186;28;45287;-75
2024/01/23 16:29:34;;;;;;;;;4.50;2.50;;;;;20.36;47.22;102212.38;5054553;28;46273;-77
2024/01/23 16:31:59;;;;;;;;;5.25;3.50;;;;;19.70;48.39;102230.16;5054216;28;45578;-77
2024/01/23 16:34:25;;;;;;;;;5.25;4.00;;;;;20.06;48.21;102194.34;5054475;28;46861;-76
2024/01/23 16:36:50;;;;;;;;;3.25;2.50;;;;;20.17;47.42;102195.41;5054036;28;50917;-77
2024/01/23 16:39:15;;;;;;;;;9.00;4.00;;;;;20.28;47.48;102211.97;5051089;28;46486;-76
2024/01/23 16:41:41;;;;;;;;;7.75;3.75;;;;;19.77;48.84;102177.09;5041529;28;45790;-75
2024/01/23 16:44:06;;;;;;;;;7.25;3.50;;;;;19.85;48.71;102180.22;5051385;28;45500;-75
2024/01/23 16:46:32;;;;;;;;;4.00;4.00;;;;;19.79;48.85;102186.94;5053040;28;45420;-76
2024/01/23 16:48:57;;;;;;;;;8.00;4.00;;;;;20.16;48.36;102218.16;5056039;28;45954;-77
2024/01/23 16:51:22;;;;;;;;;5.50;3.75;;;;;20.22;48.28;102197.88;5055396;28;45540;-76
2024/01/23 16:53:49;;;;;;;;;4.25;4.00;;;;;20.34;47.59;102197.09;5055848;28;45277;-77